WetterOnline ( https://www.wetteronline.de )

Wetter aktuell Potsdam

Aktuelles Wetter: Potsdam (100m)

6-stündlich | Neueste Meldungen
Ortszeit Temperatur Wetter
Di, 02.06. 20:00 24.2° C wolkenlos
Di, 02.06. 14:00 25.2° C fast wolkenlos
Di, 02.06. 8:00 13.6° C fast wolkenlos
Di, 02.06. 2:00 12.4° C wolkenlos
Mo, 01.06. 20:00 20.7° C wolkenlos
Mo, 01.06. 14:00 23.0° C fast wolkenlos
Mo, 01.06. 8:00 11.6° C fast wolkenlos
Mo, 01.06. 2:00 10.7° C wolkenlos
Ortszeit Temperatur Wetter
Di, 02.06. 20:00 24.2° C wolkenlos
Di, 02.06. 19:40 24.6° C wolkenlos
Di, 02.06. 19:30 25.0° C wolkenlos
Di, 02.06. 19:20 25.0° C wolkenlos
Di, 02.06. 19:10 25.2° C fast wolkenlos
Di, 02.06. 19:00 25.9° C wolkig
Di, 02.06. 18:50 25.9° C wolkig
Di, 02.06. 18:30 27.1° C leicht bewölkt
Di, 02.06. 18:00 27.2° C wolkenlos
Di, 02.06. 17:30 27.5° C leicht bewölkt
Di, 02.06. 17:00 27.3° C leicht bewölkt
Di, 02.06. 16:30 27.2° C leicht bewölkt
Ortszeit Relative Feuchte Sichtweite
Di, 02.06. 20:00 33% 60 km
Di, 02.06. 14:00 33% 55 km
Di, 02.06. 8:00 64% 50 km
Di, 02.06. 2:00 67% >70 km
Mo, 01.06. 20:00 42% 55 km
Mo, 01.06. 14:00 26% 50 km
Mo, 01.06. 8:00 76% 50 km
Mo, 01.06. 2:00 76% 55 km
Ortszeit Relative Feuchte Sichtweite
Di, 02.06. 20:00 33% 60 km
Di, 02.06. 19:40 32% -
Di, 02.06. 19:30 31% >70 km
Di, 02.06. 19:20 31% -
Di, 02.06. 19:10 30% -
Di, 02.06. 19:00 27% 60 km
Di, 02.06. 18:50 27% -
Di, 02.06. 18:30 28% >70 km
Di, 02.06. 18:00 26% >70 km
Di, 02.06. 17:30 26% 55 km
Di, 02.06. 17:00 28% 50 km
Di, 02.06. 16:30 27% 50 km
Ortszeit Niederschlagsmenge Niederschlagsart
Di, 02.06. 20:00 0.0 l/m2 in 12 Std. -
Di, 02.06. 14:00 0.0 l/m2 in 6 Std. -
Di, 02.06. 8:00 0.0 l/m2 in 12 Std. -
Di, 02.06. 2:00 0.0 l/m2 in 6 Std. -
Mo, 01.06. 20:00 0.0 l/m2 in 12 Std. -
Mo, 01.06. 14:00 0.0 l/m2 in 6 Std. -
Mo, 01.06. 8:00 0.0 l/m2 in 12 Std. -
Mo, 01.06. 2:00 0.0 l/m2 in 6 Std. -
Ortszeit Niederschlagsmenge Niederschlagsart
Di, 02.06. 20:00 0.0 l/m2 in 1 Std. -
Di, 02.06. 19:40 keine Meldung -
Di, 02.06. 19:30 0.0 l/m2 in 1 Std. -
Di, 02.06. 19:20 keine Meldung -
Di, 02.06. 19:10 keine Meldung -
Di, 02.06. 19:00 0.0 l/m2 in 1 Std. -
Di, 02.06. 18:50 keine Meldung -
Di, 02.06. 18:30 0.0 l/m2 in 1 Std. -
Di, 02.06. 18:00 0.0 l/m2 in 1 Std. -
Di, 02.06. 17:30 0.0 l/m2 in 1 Std. -
Di, 02.06. 17:00 0.0 l/m2 in 1 Std. -
Di, 02.06. 16:30 0.0 l/m2 in 1 Std. -
Ortszeit Stärke Spitze Richtung
km/h Bft. km/h Grad Sektor
Di, 02.06. 20:00 17 3 39 360° N
Di, 02.06. 14:00 14 3 32 300° NW
Di, 02.06. 8:00 4 1 22 330° NW
Di, 02.06. 2:00 13 3 33 50° NO
Mo, 01.06. 20:00 20 4 39 40° NO
Mo, 01.06. 14:00 15 3 26 20° N
Mo, 01.06. 8:00 9 2 22 30° NO
Mo, 01.06. 2:00 9 2 33 40° NO
Ortszeit Stärke Spitze Richtung
km/h Bft. km/h Grad Sektor
Di, 02.06. 20:00 17 3 35 360° N
Di, 02.06. 19:40 17 3 - 360° N
Di, 02.06. 19:30 17 3 35 330° NW
Di, 02.06. 19:20 17 3 - 330° NW
Di, 02.06. 19:10 18 3 - 330° NW
Di, 02.06. 19:00 22 4 36 330° NW
Di, 02.06. 18:50 22 4 - 330° NW
Di, 02.06. 18:30 19 3 37 330° NW
Di, 02.06. 18:00 14 3 40 330° NW
Di, 02.06. 17:30 15 3 39 320° NW
Di, 02.06. 17:00 18 3 36 320° NW
Di, 02.06. 16:30 18 3 36 310° NW
Ortszeit Untergrenze Bedeckung Gattung
total tief tief mittel hoch
Di, 02.06. 20:00 - 0/8 0/8 - - -
Di, 02.06. 14:00 1800 m 1/8 3/8 Cu Ac Ci
Di, 02.06. 8:00 9000 m 1/8 0/8 - - Ci
Di, 02.06. 2:00 - 0/8 0/8 - - -
Mo, 01.06. 20:00 - 0/8 0/8 - - -
Mo, 01.06. 14:00 9000 m 1/8 0/8 - - Ci
Mo, 01.06. 8:00 9000 m 1/8 0/8 - - Ci
Mo, 01.06. 2:00 - 0/8 0/8 - - -
Ortszeit Bedeckungsgrad in Achtel und Wolkenuntergrenze
Di, 02.06. 20:00 keine Wolken
Di, 02.06. 19:40 keine Wolken
Di, 02.06. 19:30 keine Wolken
Di, 02.06. 19:20 keine Wolken
Di, 02.06. 19:10 1(3300m)
Di, 02.06. 19:00 2(2400m) 6(3600m)
Di, 02.06. 18:50 2(2400m) 6(3600m)
Di, 02.06. 18:30 1(2400m) 6(3600m)
Di, 02.06. 18:00 keine Wolken
Di, 02.06. 17:30 1(2100m)
Di, 02.06. 17:00 3(2400m) 1(3300m) 4(10500m)
Di, 02.06. 16:30 3(2400m)
Ortszeit Luftdruck NN (hPa) Tendenz (hPa in 3 Std.)
Di, 02.06. 20:00 1012 - 1,6
Di, 02.06. 14:00 1017 - 2,2
Di, 02.06. 8:00 1021 0,0
Di, 02.06. 2:00 1022 - 0,6
Mo, 01.06. 20:00 1022 - 0,4
Mo, 01.06. 14:00 1023 - 1,1
Mo, 01.06. 8:00 1024 + 0,8
Mo, 01.06. 2:00 1024 + 0,7
Ortszeit Luftdruck NN (hPa) Tendenz (hPa in 3 Std.)
Di, 02.06. 20:00 1012 - 1,6
Di, 02.06. 19:40 1012 keine Meldung
Di, 02.06. 19:30 1012 - 1,8
Di, 02.06. 19:20 1012 keine Meldung
Di, 02.06. 19:10 1012 keine Meldung
Di, 02.06. 19:00 1012 - 2,3
Di, 02.06. 18:50 1012 keine Meldung
Di, 02.06. 18:30 1012 - 2,7
Di, 02.06. 18:00 1013 - 2,9
Di, 02.06. 17:30 1013 - 3,0
Di, 02.06. 17:00 1013 - 3,2
Di, 02.06. 16:30 1014 - 3,1
Ortszeit Schneehöhe (cm)
Di, 02.06. 20:00 -
Di, 02.06. 14:00 0
Di, 02.06. 8:00 0
Di, 02.06. 2:00 -
Mo, 01.06. 20:00 -
Mo, 01.06. 14:00 0
Mo, 01.06. 8:00 0
Mo, 01.06. 2:00 -
Ortszeit Schneehöhe (cm)
Di, 02.06. 20:00 -
Di, 02.06. 19:40 -
Di, 02.06. 19:30 -
Di, 02.06. 19:20 -
Di, 02.06. 19:10 -
Di, 02.06. 19:00 -
Di, 02.06. 18:50 -
Di, 02.06. 18:30 -
Di, 02.06. 18:00 -
Di, 02.06. 17:30 -
Di, 02.06. 17:00 -
Di, 02.06. 16:30 -
Link zu dieser Seite / Seite empfehlen

Das Wetter in ...